Time;durP1;ratioP1;P1;durP2;ratioP2;P2;SDS_P1;SDS_P2;PMS_P1;PMS_P2;Temp;Humidity;BMP_temperature;BMP_pressure;BME280_temperature;BME280_humidity;BME280_pressure;Samples;Min_cycle;Max_cycle;Signal;HPM_P1;HPM_P2
2023/01/23 00:00:16;;;;;;;8.57;2.85;;;;;;;15.70;59.92;101619.06;7398950;19;20014;-57
2023/01/23 00:02:42;;;;;;;9.05;1.63;;;;;;;7.56;100.00;101636.19;7395930;19;20011;-56
2023/01/23 00:05:09;;;;;;;7.60;2.72;;;;;;;8.36;100.00;101636.44;7401302;19;20014;-57
2023/01/23 00:07:35;;;;;;;3.85;2.17;;;;;;;7.89;100.00;101645.72;7396185;19;20093;-57
2023/01/23 00:10:02;;;;;;;9.82;3.15;;;;;;;7.88;100.00;101637.84;7397974;19;20382;-57
2023/01/23 00:12:28;;;;;;;3.50;2.45;;;;;;;7.10;100.00;101638.59;7393107;19;20082;-57
2023/01/23 00:14:55;;;;;;;3.88;2.80;;;;;;;12.72;93.00;101629.88;7394744;19;20070;-57
2023/01/23 00:17:23;;;;;;;5.68;1.77;;;;;;;12.21;81.48;101628.25;7392398;19;20010;-57
2023/01/23 00:19:52;;;;;;;8.10;2.65;;;;;;;13.39;81.17;101633.28;7390074;19;20011;-57
2023/01/23 00:22:18;;;;;;;6.60;1.73;;;;;;;15.14;68.10;101628.63;7392539;19;20038;-58
2023/01/23 00:24:44;;;;;;;11.02;2.72;;;;;;;18.43;57.86;101625.56;7395280;19;20432;-57
2023/01/23 00:27:10;;;;;;;14.23;2.10;;;;;;;17.43;57.23;101631.31;7394613;19;20007;-58
2023/01/23 00:29:37;;;;;;;8.75;1.83;;;;;;;17.44;60.09;101635.66;7397275;19;20015;-58
2023/01/23 00:32:03;;;;;;;7.80;2.72;;;;;;;18.93;53.37;101644.09;7392117;19;20022;-56
2023/01/23 00:34:29;;;;;;;2.33;1.48;;;;;;;15.50;61.73;101641.22;7394705;19;20033;-55
2023/01/23 00:36:56;;;;;;;2.90;1.30;;;;;;;11.16;67.49;101649.41;7393294;19;20010;-58
2023/01/23 00:39:22;;;;;;;4.90;2.30;;;;;;;7.91;100.00;101661.97;7392157;19;20010;-57
2023/01/23 00:41:49;;;;;;;7.25;1.50;;;;;;;6.73;100.00;101663.41;7390767;19;20046;-56
2023/01/23 00:44:16;;;;;;;5.60;3.13;;;;;;;8.06;100.00;101655.84;7394606;19;20020;-55
2023/01/23 00:46:42;;;;;;;4.78;2.05;;;;;;;8.07;100.00;101668.53;7393824;19;20340;-55
2023/01/23 00:49:08;;;;;;;9.40;2.38;;;;;;;7.80;100.00;101662.06;7393569;19;20011;-56
2023/01/23 00:51:35;;;;;;;5.10;2.30;;;;;;;7.97;100.00;101652.00;7391879;19;20018;-57
2023/01/23 00:54:01;;;;;;;11.43;1.85;;;;;;;12.76;100.00;101650.91;7395137;19;20010;-57
2023/01/23 00:56:27;;;;;;;3.80;1.80;;;;;;;7.60;100.00;101655.56;7391060;19;20079;-56
2023/01/23 00:58:54;;;;;;;7.07;2.17;;;;;;;7.56;100.00;101650.03;7395577;19;20006;-56
2023/01/23 01:01:21;;;;;;;8.00;1.80;;;;;;;11.88;100.00;101639.56;7389772;19;20014;-56
2023/01/23 01:03:48;;;;;;;4.40;1.70;;;;;;;9.09;100.00;101650.47;7391387;19;20066;-57
2023/01/23 01:06:14;;;;;;;6.18;2.85;;;;;;;6.60;100.00;101651.22;7393105;19;20011;-57
2023/01/23 01:08:40;;;;;;;1.58;1.48;;;;;;;6.11;100.00;101650.28;7393169;19;20336;-57
2023/01/23 01:11:07;;;;;;;9.23;2.92;;;;;;;6.38;100.00;101649.75;7391471;19;20451;-57
2023/01/23 01:13:34;;;;;;;9.05;3.55;;;;;;;10.65;100.00;101637.84;7392665;19;20011;-56
2023/01/23 01:16:00;;;;;;;9.95;1.83;;;;;;;8.66;100.00;101634.84;7390637;19;20018;-57
2023/01/23 01:18:28;;;;;;;5.15;3.15;;;;;;;10.50;100.00;101628.25;7390358;19;20037;-56
2023/01/23 01:20:55;;;;;;;4.72;1.63;;;;;;;14.57;82.67;101620.97;7390541;19;20027;-56
2023/01/23 01:23:21;;;;;;;8.88;3.47;;;;;;;18.63;61.11;101622.06;7391419;19;20034;-57
2023/01/23 01:25:48;;;;;;;2.97;2.30;;;;;;;18.06;58.90;101622.34;7391200;19;20014;-57
2023/01/23 01:28:14;;;;;;;5.40;3.00;;;;;;;18.89;55.36;101626.59;7391674;19;20018;-56
2023/01/23 01:30:40;;;;;;;7.10;2.75;;;;;;;16.51;61.61;101635.03;7390238;19;20125;-56
2023/01/23 01:33:08;;;;;;;2.08;1.88;;;;;;;18.71;55.77;101637.34;7390036;19;20478;-57
2023/01/23 01:35:34;;;;;;;3.85;1.15;;;;;;;18.58;54.93;101634.06;7395018;19;20073;-56
2023/01/23 01:38:00;;;;;;;10.65;2.45;;;;;;;18.58;53.47;101629.16;7390572;19;20035;-56
2023/01/23 01:40:31;;;;;;;17.40;3.22;;;;;;;16.63;55.61;101632.03;7391582;19;20010;-56
2023/01/23 01:43:00;;;;;;;5.55;2.92;;;;;;;17.56;54.54;101631.88;7388787;19;20099;-57
2023/01/23 01:46:07;;;;;;;4.10;1.85;;;;;;;19.23;51.48;101633.50;7392845;19;20468;-56
2023/01/23 01:48:39;;;;;;;9.93;2.75;;;;;;;19.38;50.64;101637.06;7389407;19;20011;-57
2023/01/23 01:51:29;;;;;;;10.30;1.33;;;;;;;19.51;49.56;101645.97;7389534;19;20379;-56
2023/01/23 01:54:07;;;;;;;9.77;3.13;;;;;;;19.22;49.46;101642.47;7389822;19;20713;-56
2023/01/23 01:56:40;;;;;;;5.35;1.92;;;;;;;19.34;48.66;101644.97;7387805;19;20018;-57
2023/01/23 01:59:07;;;;;;;2.90;2.65;;;;;;;19.16;49.19;101644.44;7390419;19;20010;-56
2023/01/23 02:01:33;;;;;;;3.08;1.80;;;;;;;19.05;48.59;101647.09;7387884;19;20011;-56
2023/01/23 02:04:03;;;;;;;8.95;1.92;;;;;;;19.22;48.16;101654.56;7390529;19;20050;-56
2023/01/23 02:06:30;;;;;;;12.38;2.40;;;;;;;19.08;47.97;101655.34;7391462;19;20010;-56
2023/01/23 02:09:13;;;;;;;12.18;2.80;;;;;;;19.17;47.54;101652.41;7392527;19;20010;-56
2023/01/23 02:11:42;;;;;;;6.93;2.45;;;;;;;18.98;47.52;101659.59;7388259;19;20011;-57
2023/01/23 02:14:09;;;;;;;3.45;2.60;;;;;;;17.80;49.64;101660.78;7390009;19;20454;-56
2023/01/23 02:16:39;;;;;;;5.05;1.67;;;;;;;17.53;50.21;101661.00;7389849;19;20048;-56
2023/01/23 02:19:22;;;;;;;3.20;1.73;;;;;;;17.31;50.79;101663.28;7390997;19;20002;-56
2023/01/23 02:21:55;;;;;;;9.88;2.42;;;;;;;17.31;50.60;101664.09;7390073;19;20074;-56
2023/01/23 02:24:38;;;;;;;6.65;2.55;;;;;;;17.40;50.32;101660.44;7393077;19;20010;-56
2023/01/23 02:27:04;;;;;;;3.35;1.70;;;;;;;17.29;50.75;101665.81;7387808;19;20015;-56
2023/01/23 02:29:45;;;;;;;7.20;2.75;;;;;;;17.13;50.79;101663.41;7388884;19;20018;-85
2023/01/23 02:32:13;;;;;;;8.93;2.47;;;;;;;17.48;50.34;101672.88;7389012;19;20011;-85
2023/01/23 02:34:41;;;;;;;5.82;2.78;;;;;;;17.43;50.36;101659.47;7392153;19;20025;-85
2023/01/23 02:37:08;;;;;;;4.93;2.33;;;;;;;17.23;51.17;101662.09;7390853;19;20074;-86
2023/01/23 02:39:34;;;;;;;8.68;2.10;;;;;;;17.63;50.60;101661.72;7390909;19;20388;-86
2023/01/23 02:42:01;;;;;;;5.85;2.65;;;;;;;17.52;50.30;101667.88;7390337;19;20017;-85
2023/01/23 02:44:55;;;;;;;6.38;2.78;;;;;;;17.35;50.28;101670.31;7394001;19;20445;-85
2023/01/23 02:47:22;;;;;;;3.45;3.15;;;;;;;17.86;50.18;101670.16;7390821;19;20018;-85
2023/01/23 02:49:48;;;;;;;8.88;3.70;;;;;;;17.99;49.60;101673.47;7389480;19;20019;-84
2023/01/23 02:52:14;;;;;;;7.30;3.67;;;;;;;18.16;49.08;101671.75;7389263;19;20019;-84
2023/01/23 02:54:40;;;;;;;5.40;2.67;;;;;;;18.04;49.49;101672.03;7393414;19;20023;-84
2023/01/23 02:57:07;;;;;;;7.22;2.13;;;;;;;17.89;49.56;101657.88;7390643;19;20006;-84
2023/01/23 03:02:19;;;;;;;5.35;2.38;;;;;;;17.88;49.65;101662.00;7387912;19;20011;-85
2023/01/23 03:04:46;;;;;;;6.47;3.47;;;;;;;18.00;49.31;101662.97;7387670;19;20114;-85
2023/01/23 03:07:13;;;;;;;6.30;2.03;;;;;;;17.88;49.60;101662.00;7389150;19;20524;-85
2023/01/23 03:09:40;;;;;;;12.00;1.90;;;;;;;17.35;50.62;101669.53;7389185;19;20473;-85
2023/01/23 03:12:07;;;;;;;9.95;3.70;;;;;;;17.83;49.99;101668.28;7390269;19;20481;-84
2023/01/23 03:14:34;;;;;;;2.85;2.50;;;;;;;17.70;49.67;101667.75;7391996;19;20023;-85
2023/01/23 03:17:00;;;;;;;9.23;3.40;;;;;;;17.62;49.81;101660.94;7390658;19;20014;-84
2023/01/23 03:19:31;;;;;;;8.55;3.33;;;;;;;17.59;49.73;101652.66;7389186;19;20019;-85
2023/01/23 03:21:58;;;;;;;22.40;2.80;;;;;;;17.77;49.63;101639.22;7387872;19;20382;-85
2023/01/23 03:24:24;;;;;;;7.88;3.20;;;;;;;14.77;57.16;101640.22;7393879;19;20029;-85
2023/01/23 03:26:51;;;;;;;4.00;1.98;;;;;;;16.78;52.47;101632.16;7396720;19;20022;-85
2023/01/23 03:32:15;;;;;;;10.30;2.40;;;;;;;17.03;52.05;101631.69;7392918;19;20467;-56
2023/01/23 03:34:43;;;;;;;14.93;2.60;;;;;;;17.25;50.98;101631.41;7394507;19;20030;-56
2023/01/23 03:37:11;;;;;;;2.50;1.80;;;;;;;17.10;50.87;101625.72;7390803;19;20015;-56
2023/01/23 03:42:23;;;;;;;6.78;2.30;;;;;;;17.34;50.52;101631.38;7390923;19;20097;-56
2023/01/23 03:44:52;;;;;;;6.68;1.63;;;;;;;17.10;50.51;101625.72;7398280;19;20462;-56
2023/01/23 03:47:21;;;;;;;16.02;4.18;;;;;;;17.15;50.41;101629.94;7395429;19;20473;-57
2023/01/23 03:49:47;;;;;;;0.75;0.75;;;;;;;17.17;50.44;101621.78;7398922;19;20017;-57
2023/01/23 03:52:14;;;;;;;7.10;2.05;;;;;;;17.30;49.84;101625.91;7399627;19;20011;-56
2023/01/23 03:54:41;;;;;;;2.45;2.25;;;;;;;16.71;50.50;101628.88;7399220;19;20010;-57
2023/01/23 03:57:09;;;;;;;2.90;1.88;;;;;;;16.56;50.91;101632.38;7395859;19;20040;-58
2023/01/23 03:59:47;;;;;;;13.35;3.05;;;;;;;16.57;50.40;101633.94;7401628;19;20047;-57
2023/01/23 04:02:15;;;;;;;1.30;1.15;;;;;;;16.34;51.08;101631.78;7394665;19;20010;-56
2023/01/23 04:04:41;;;;;;;2.28;1.70;;;;;;;16.21;50.95;101619.94;7397555;19;20017;-57
2023/01/23 04:07:09;;;;;;;8.50;2.60;;;;;;;16.14;51.12;101627.91;7392248;19;20014;-57
2023/01/23 04:09:38;;;;;;;3.88;1.77;;;;;;;16.12;51.03;101622.78;7394882;19;20357;-57
2023/01/23 04:12:04;;;;;;;2.70;1.83;;;;;;;11.73;59.00;101637.59;7392531;19;20357;-57
2023/01/23 04:14:36;;;;;;;6.57;2.47;;;;;;;10.62;68.46;101647.09;7395840;19;20017;-57
2023/01/23 04:17:04;;;;;;;27.48;2.58;;;;;;;10.54;72.55;101647.69;7393287;19;20415;-57
2023/01/23 04:19:30;;;;;;;5.47;2.72;;;;;;;11.82;76.31;101635.75;7392770;19;20018;-57
2023/01/23 04:21:57;;;;;;;6.38;1.65;;;;;;;13.66;66.99;101628.72;7391880;19;20010;-57
2023/01/23 04:24:23;;;;;;;3.03;2.83;;;;;;;15.28;59.41;101632.88;7394781;19;20021;-57
2023/01/23 04:26:49;;;;;;;6.00;1.20;;;;;;;15.78;57.03;101628.75;7392456;19;20017;-57
2023/01/23 04:29:16;;;;;;;4.40;1.98;;;;;;;15.84;55.59;101641.69;7395659;19;20029;-57
2023/01/23 04:31:43;;;;;;;11.55;3.45;;;;;;;15.64;55.52;101640.59;7392582;19;20017;-57
2023/01/23 04:34:12;;;;;;;4.85;1.88;;;;;;;15.75;55.15;101647.31;7394020;19;20463;-57
2023/01/23 04:36:39;;;;;;;2.33;1.45;;;;;;;15.84;54.46;101649.34;7390716;19;20018;-57
2023/01/23 04:39:06;;;;;;;1.75;1.13;;;;;;;15.99;53.83;101649.47;7391924;19;20010;-56
2023/01/23 04:41:34;;;;;;;3.97;2.33;;;;;;;16.18;53.49;101657.44;7391542;19;20739;-56
2023/01/23 04:44:23;;;;;;;7.03;2.42;;;;;;;16.05;53.10;101654.00;7392862;19;20013;-56
2023/01/23 04:47:18;;;;;;;16.58;2.28;;;;;;;15.71;53.51;101669.16;7393267;19;20007;-56
2023/01/23 04:49:45;;;;;;;15.98;3.22;;;;;;;15.73;54.04;101672.28;7393442;19;20458;-56
2023/01/23 04:52:11;;;;;;;2.65;1.35;;;;;;;15.63;53.95;101681.97;7392430;19;20021;-56
2023/01/23 04:54:42;;;;;;;15.80;2.85;;;;;;;15.63;54.10;101676.34;7393676;19;20039;-56
2023/01/23 04:57:08;;;;;;;6.93;3.70;;;;;;;16.03;53.68;101667.75;7392316;19;20017;-56
2023/01/23 04:59:34;;;;;;;6.40;2.45;;;;;;;16.08;54.06;101669.16;7394891;19;20010;-56
2023/01/23 05:02:01;;;;;;;2.47;1.83;;;;;;;15.67;53.98;101679.78;7390184;19;20010;-56
2023/01/23 05:04:33;;;;;;;13.98;1.70;;;;;;;16.18;53.91;101668.66;7390831;19;20043;-56
2023/01/23 05:06:59;;;;;;;4.60;2.50;;;;;;;16.33;53.34;101680.81;7391492;19;20015;-56
2023/01/23 05:09:27;;;;;;;6.20;1.48;;;;;;;16.40;53.03;101680.50;7393795;19;20035;-56
2023/01/23 05:11:53;;;;;;;7.53;2.95;;;;;;;16.44;53.16;101681.13;7391231;19;20025;-56
2023/01/23 05:14:24;;;;;;;4.43;1.63;;;;;;;16.38;52.86;101683.00;7391678;19;20018;-56
2023/01/23 05:16:50;;;;;;;2.72;2.53;;;;;;;16.35;53.03;101681.13;7390566;19;20039;-56
2023/01/23 05:19:18;;;;;;;14.85;2.80;;;;;;;16.20;53.43;101682.28;7391674;19;20010;-56
2023/01/23 05:21:44;;;;;;;5.75;2.75;;;;;;;16.16;53.35;101688.03;7389502;19;20039;-56
2023/01/23 05:24:17;;;;;;;2.80;2.10;;;;;;;16.11;53.41;101685.88;7395909;19;20007;-57
2023/01/23 05:26:44;;;;;;;3.90;2.55;;;;;;;15.94;53.64;101693.03;7394283;19;20018;-56
2023/01/23 05:29:10;;;;;;;7.45;2.97;;;;;;;15.91;53.69;101691.97;7392209;19;20092;-56
2023/01/23 05:31:46;;;;;;;11.15;3.53;;;;;;;16.12;53.00;101686.63;7394707;19;20335;-56
2023/01/23 05:34:30;;;;;;;8.35;2.35;;;;;;;16.17;52.88;101689.63;7400041;19;20007;-56
2023/01/23 05:37:00;;;;;;;2.67;1.50;;;;;;;16.08;52.93;101695.22;7395940;19;20010;-56
2023/01/23 05:39:27;;;;;;;7.20;3.10;;;;;;;16.03;53.07;101690.22;7394812;19;20455;-56
2023/01/23 05:41:53;;;;;;;4.50;2.47;;;;;;;15.86;53.36;101697.41;7392086;19;20019;-56
2023/01/23 05:44:31;;;;;;;8.18;2.08;;;;;;;15.22;53.79;101701.31;7396329;19;20073;-56
2023/01/23 05:47:23;;;;;;;7.88;3.40;;;;;;;15.97;53.54;101692.09;7388518;19;20748;-56
2023/01/23 05:49:50;;;;;;;7.57;2.83;;;;;;;15.98;53.59;101692.91;7392962;19;20010;-57
2023/01/23 05:52:16;;;;;;;2.85;2.53;;;;;;;15.92;53.84;101689.91;7391425;19;20007;-57
2023/01/23 05:54:43;;;;;;;10.02;2.92;;;;;;;15.98;53.70;101688.06;7395724;19;20070;-57
2023/01/23 05:57:10;;;;;;;3.13;1.75;;;;;;;16.07;53.28;101688.03;7392619;19;20464;-58
2023/01/23 05:59:55;;;;;;;8.35;2.92;;;;;;;15.96;53.20;101696.16;7394435;19;20070;-58
2023/01/23 06:02:41;;;;;;;11.50;1.95;;;;;;;15.98;53.25;101707.75;7391508;19;20011;-57
2023/01/23 06:05:45;;;;;;;18.70;2.63;;;;;;;15.98;53.67;101698.53;7387271;19;20452;-57
2023/01/23 06:08:17;;;;;;;2.75;2.00;;;;;;;16.07;53.13;101701.34;7387307;19;20018;-57
2023/01/23 06:10:43;;;;;;;10.68;3.97;;;;;;;16.08;53.25;101703.66;7387733;19;20030;-58
2023/01/23 06:13:10;;;;;;;7.88;2.20;;;;;;;15.96;53.44;101707.41;7388163;19;20014;-58
2023/01/23 06:15:36;;;;;;;5.25;2.17;;;;;;;15.92;53.40;101706.78;7388742;19;20415;-56
2023/01/23 06:18:08;;;;;;;5.28;2.38;;;;;;;15.88;53.60;101711.78;7389646;19;20011;-57
2023/01/23 06:20:34;;;;;;;8.73;3.58;;;;;;;15.82;53.83;101710.84;7390241;19;20023;-57
2023/01/23 06:23:01;;;;;;;6.50;2.05;;;;;;;15.84;54.08;101717.56;7390197;19;20017;-57
2023/01/23 06:25:28;;;;;;;6.50;2.42;;;;;;;15.90;53.62;101728.94;7395187;19;20012;-57
2023/01/23 06:27:56;;;;;;;5.63;3.00;;;;;;;15.96;53.94;101729.13;7389962;19;20017;-57
2023/01/23 06:30:25;;;;;;;7.93;2.58;;;;;;;15.83;54.16;101732.06;7386578;19;20010;-61
2023/01/23 06:32:52;;;;;;;6.05;2.80;;;;;;;15.78;54.32;101729.88;7386704;19;20459;-61
2023/01/23 06:35:26;;;;;;;2.05;0.82;;;;;;;15.69;54.35;101727.03;7389646;19;20107;-62
2023/01/23 06:37:52;;;;;;;4.25;2.47;;;;;;;16.12;53.51;101723.97;7387097;19;20011;-61
2023/01/23 06:40:19;;;;;;;8.18;3.53;;;;;;;16.20;53.24;101721.63;7386733;19;20011;-61
2023/01/23 06:43:00;;;;;;;2.95;1.88;;;;;;;16.30;53.09;101718.34;7386664;19;20010;-61
2023/01/23 06:45:26;;;;;;;12.95;3.70;;;;;;;16.30;53.04;101726.00;7392579;19;20010;-61
2023/01/23 06:47:53;;;;;;;4.55;2.65;;;;;;;16.07;53.41;101726.63;7389023;19;20035;-61
2023/01/23 06:50:19;;;;;;;6.03;3.05;;;;;;;16.33;52.94;101725.81;7389433;19;20454;-62
2023/01/23 06:52:45;;;;;;;25.73;6.43;;;;;;;16.23;53.08;101734.72;7390070;19;20011;-61
2023/01/23 06:55:11;;;;;;;2.85;2.22;;;;;;;16.26;53.04;101737.41;7391052;19;20613;-61
2023/01/23 06:57:39;;;;;;;25.23;4.15;;;;;;;16.31;53.46;101733.94;7387502;19;20348;-61
2023/01/23 07:00:08;;;;;;;5.63;3.05;;;;;;;16.15;53.37;101739.91;7394517;19;20014;-61
2023/01/23 07:02:36;;;;;;;11.73;3.17;;;;;;;16.02;53.60;101744.09;7396989;19;20020;-61
2023/01/23 07:05:03;;;;;;;11.38;3.75;;;;;;;16.02;53.42;101750.50;7397975;19;20010;-61
2023/01/23 07:07:29;;;;;;;13.25;2.72;;;;;;;16.21;53.09;101757.69;7398371;19;20011;-61
2023/01/23 07:09:55;;;;;;;3.75;2.40;;;;;;;16.46;52.60;101753.75;7402446;19;20040;-61
2023/01/23 07:12:25;;;;;;;6.90;2.47;;;;;;;15.66;53.49;101753.25;7400109;19;20018;-61
2023/01/23 07:14:51;;;;;;;1.67;1.20;;;;;;;16.05;53.24;101743.94;7401609;19;20027;-61
2023/01/23 07:17:23;;;;;;;3.97;2.10;;;;;;;16.28;53.22;101746.16;7399144;19;20011;-61
2023/01/23 07:19:50;;;;;;;15.38;3.15;;;;;;;16.64;52.50;101745.34;7403776;19;20479;-62
2023/01/23 07:22:19;;;;;;;8.73;3.90;;;;;;;16.74;52.22;101743.31;7400544;19;20040;-59
2023/01/23 07:24:46;;;;;;;5.80;2.92;;;;;;;16.73;51.71;101747.34;7402696;19;20346;-62
2023/01/23 07:27:13;;;;;;;7.32;3.28;;;;;;;16.83;51.60;101746.84;7397749;19;20002;-62
2023/01/23 07:29:41;;;;;;;4.57;2.50;;;;;;;16.74;51.99;101755.31;7400360;19;20013;-61
2023/01/23 07:32:07;;;;;;;13.55;2.85;;;;;;;16.86;51.42;101762.03;7401141;19;20038;-62
2023/01/23 07:34:33;;;;;;;12.23;3.10;;;;;;;15.92;53.99;101757.34;7400634;19;20015;-62
2023/01/23 07:37:00;;;;;;;20.13;4.22;;;;;;;16.59;52.14;101755.19;7399979;19;20014;-61
2023/01/23 07:39:26;;;;;;;5.38;2.50;;;;;;;16.54;52.18;101753.03;7398884;19;20007;-62
2023/01/23 07:41:52;;;;;;;3.33;2.20;;;;;;;16.51;52.09;101753.97;7397399;19;20022;-62
2023/01/23 07:44:20;;;;;;;8.25;3.15;;;;;;;16.42;51.93;101756.75;7399106;19;20011;-62
2023/01/23 07:46:47;;;;;;;3.53;2.42;;;;;;;16.34;51.99;101766.75;7399437;19;20024;-62
2023/01/23 07:49:14;;;;;;;2.05;1.75;;;;;;;16.58;51.94;101762.09;7397526;19;20011;-62
2023/01/23 07:51:40;;;;;;;3.42;1.80;;;;;;;16.57;51.82;101759.72;7396033;19;20041;-62
2023/01/23 07:54:07;;;;;;;7.78;2.90;;;;;;;16.71;51.43;101767.53;7396430;19;20018;-61
2023/01/23 07:56:33;;;;;;;5.18;3.80;;;;;;;16.56;51.09;101758.97;7398982;19;20015;-61
2023/01/23 07:59:00;;;;;;;13.77;3.47;;;;;;;15.71;51.87;101763.88;7398193;19;20010;-61
2023/01/23 08:01:26;;;;;;;6.53;3.25;;;;;;;16.42;51.68;101762.38;7395327;19;20007;-61
2023/01/23 08:03:53;;;;;;;8.90;2.47;;;;;;;16.35;51.81;101767.56;7396989;19;20608;-61
2023/01/23 08:06:19;;;;;;;10.52;3.33;;;;;;;16.64;51.73;101768.63;7395737;19;20011;-62
2023/01/23 08:08:49;;;;;;;5.28;2.25;;;;;;;16.74;51.45;101760.19;7395498;19;20030;-61
2023/01/23 08:11:15;;;;;;;8.32;2.50;;;;;;;16.93;51.01;101768.13;7391465;19;20015;-61
2023/01/23 08:13:42;;;;;;;5.93;3.53;;;;;;;16.91;50.89;101769.84;7394269;19;20450;-61
2023/01/23 08:16:08;;;;;;;4.03;2.50;;;;;;;16.99;50.84;101766.22;7395249;19;20011;-62
2023/01/23 08:18:34;;;;;;;9.63;2.38;;;;;;;17.08;50.40;101759.78;7394449;19;20018;-62
2023/01/23 08:21:02;;;;;;;5.18;2.38;;;;;;;16.96;50.10;101760.72;7394022;19;20008;-62
2023/01/23 08:23:31;;;;;;;8.80;3.60;;;;;;;16.84;50.88;101756.09;7390335;19;20006;-62
2023/01/23 08:26:00;;;;;;;6.22;2.78;;;;;;;16.80;51.22;101759.06;7395399;19;20014;-62
2023/01/23 08:28:26;;;;;;;5.75;3.50;;;;;;;17.04;50.67;101759.94;7395625;19;20090;-62
2023/01/23 08:30:53;;;;;;;32.70;3.55;;;;;;;17.16;50.61;101763.81;7393560;19;20364;-61
2023/01/23 08:33:20;;;;;;;9.57;2.28;;;;;;;17.16;50.36;101775.06;7392138;19;20027;-62
2023/01/23 08:35:49;;;;;;;4.47;2.38;;;;;;;17.08;50.52;101768.22;7395557;19;20010;-59
2023/01/23 08:38:17;;;;;;;11.65;2.95;;;;;;;16.91;50.56;101778.28;7395826;19;20014;-59
2023/01/23 08:40:45;;;;;;;3.58;1.83;;;;;;;17.08;50.68;101780.28;7394747;19;20022;-59
2023/01/23 08:43:12;;;;;;;2.88;1.63;;;;;;;17.27;50.69;101784.56;7392836;19;20018;-58
2023/01/23 08:45:39;;;;;;;1.38;1.25;;;;;;;17.23;50.29;101786.00;7394960;19;20006;-59
2023/01/23 08:48:07;;;;;;;4.80;2.63;;;;;;;17.34;50.24;101786.28;7394123;19;20530;-58
2023/01/23 08:50:33;;;;;;;14.27;3.60;;;;;;;17.16;50.54;101787.13;7396937;19;20478;-58
2023/01/23 08:53:00;;;;;;;6.18;1.20;;;;;;;17.46;50.20;101788.09;7392998;19;20043;-59
2023/01/23 08:55:27;;;;;;;2.20;1.75;;;;;;;17.58;50.35;101794.78;7394784;19;20457;-58
2023/01/23 08:57:54;;;;;;;4.88;1.77;;;;;;;17.71;49.87;101793.31;7395089;19;20070;-59
2023/01/23 09:00:21;;;;;;;9.32;3.95;;;;;;;17.78;49.95;101792.19;7399354;19;20035;-59
2023/01/23 09:02:47;;;;;;;6.72;2.78;;;;;;;17.83;49.62;101811.25;7395726;19;20016;-59
2023/01/23 09:05:13;;;;;;;4.47;2.33;;;;;;;17.79;49.43;101805.78;7399311;19;20018;-59
2023/01/23 09:07:39;;;;;;;3.20;1.77;;;;;;;17.69;49.66;101807.13;7397717;19;20454;-59
2023/01/23 09:10:06;;;;;;;8.75;2.97;;;;;;;17.84;49.72;101812.81;7395577;19;20021;-58
2023/01/23 09:12:32;;;;;;;5.85;2.83;;;;;;;17.80;49.48;101823.50;7393652;19;20754;-58
2023/01/23 09:14:58;;;;;;;8.13;4.43;;;;;;;17.74;49.27;101820.53;7395874;19;20010;-59
2023/01/23 09:17:25;;;;;;;12.38;2.60;;;;;;;17.60;50.17;101821.25;7391537;19;20011;-59
2023/01/23 09:19:52;;;;;;;5.30;2.55;;;;;;;17.60;49.92;101831.72;7391198;19;20018;-59
2023/01/23 09:22:19;;;;;;;6.97;2.53;;;;;;;17.52;50.26;101838.97;7389203;19;20015;-59
2023/01/23 09:24:45;;;;;;;14.02;4.35;;;;;;;17.58;50.39;101829.41;7394151;19;20027;-59
2023/01/23 09:27:11;;;;;;;5.10;2.60;;;;;;;17.44;50.07;101824.41;7390339;19;20015;-59
2023/01/23 09:29:37;;;;;;;10.15;5.22;;;;;;;17.65;50.08;101819.81;7395699;19;20018;-59
2023/01/23 09:32:03;;;;;;;9.68;3.65;;;;;;;17.69;50.23;101809.94;7391742;19;20015;-59
2023/01/23 09:34:30;;;;;;;6.15;2.80;;;;;;;17.61;50.12;101808.69;7394566;19;20843;-59
2023/01/23 09:36:56;;;;;;;7.80;3.42;;;;;;;17.35;49.77;101816.75;7392788;19;20522;-59
2023/01/23 09:39:22;;;;;;;9.05;2.50;;;;;;;17.19;50.28;101822.00;7390588;19;20014;-59
2023/01/23 09:41:48;;;;;;;4.97;2.15;;;;;;;17.28;50.52;101827.59;7390187;19;20007;-59
2023/01/23 09:44:24;;;;;;;11.52;3.40;;;;;;;17.29;50.76;101826.34;7394111;19;20047;-59
2023/01/23 09:46:54;;;;;;;6.30;2.08;;;;;;;16.60;51.13;101829.13;7391070;19;20010;-59
2023/01/23 09:49:36;;;;;;;7.68;3.75;;;;;;;16.63;51.93;101828.94;7391046;19;20473;-59
2023/01/23 09:52:10;;;;;;;11.00;4.28;;;;;;;16.77;51.39;101818.31;7391713;19;20760;-59
2023/01/23 09:54:43;;;;;;;14.38;2.80;;;;;;;16.62;50.89;101821.78;7394012;19;20011;-59
2023/01/23 09:57:21;;;;;;;9.02;3.10;;;;;;;16.67;51.26;101829.56;7391164;19;20058;-59
2023/01/23 09:59:52;;;;;;;6.60;2.13;;;;;;;16.75;51.20;101829.25;7394238;19;20349;-87
2023/01/23 10:02:20;;;;;;;7.32;2.65;;;;;;;17.04;50.55;101826.72;7392696;19;20042;-84
2023/01/23 10:04:48;;;;;;;12.18;2.28;;;;;;;17.11;50.16;101829.19;7396843;19;20667;-86
2023/01/23 10:07:30;;;;;;;14.77;4.88;;;;;;;17.10;49.94;101831.25;7394702;19;20063;-85
2023/01/23 10:10:14;;;;;;;4.22;2.28;;;;;;;16.97;50.42;101846.75;7395269;19;20063;-84
2023/01/23 10:13:15;;;;;;;6.45;3.22;;;;;;;16.74;50.05;101856.59;7387479;19;20326;-85
2023/01/23 10:16:03;;;;;;;2.03;1.30;;;;;;;16.58;50.08;101866.16;7384608;19;20037;-85
2023/01/23 10:18:36;;;;;;;11.02;3.42;;;;;;;16.68;50.26;101870.53;7395712;19;20086;-85
2023/01/23 10:21:17;;;;;;;9.32;2.33;;;;;;;16.60;49.98;101862.88;7387232;19;20018;-85
2023/01/23 10:24:27;;;;;;;15.05;3.63;;;;;;;16.70;49.60;101870.06;7390854;19;20492;-84
2023/01/23 10:26:57;;;;;;;5.18;2.00;;;;;;;16.74;49.83;101862.25;7391293;19;20375;-85
2023/01/23 10:29:29;;;;;;;5.15;3.20;;;;;;;16.52;50.03;101868.03;7396256;19;20027;-88
2023/01/23 10:32:00;;;;;;;4.30;2.50;;;;;;;16.84;49.44;101863.03;7394832;19;20042;-88
2023/01/23 10:34:46;;;;;;;26.35;2.80;;;;;;;17.14;49.29;101857.19;7394243;19;20085;-85
2023/01/23 10:37:32;;;;;;;5.68;2.13;;;;;;;17.34;48.98;101851.84;7392007;19;20030;-86
2023/01/23 10:40:11;;;;;;;8.68;2.25;;;;;;;17.10;49.47;101836.09;7391088;19;20035;-85
2023/01/23 10:42:37;;;;;;;11.10;2.65;;;;;;;17.35;48.66;101835.69;7391505;19;20021;-87
2023/01/23 10:45:05;;;;;;;10.02;3.78;;;;;;;17.19;48.91;101850.16;7388981;19;20030;-86
2023/01/23 10:47:36;;;;;;;7.00;3.33;;;;;;;17.19;49.30;101852.97;7396670;19;20034;-87
2023/01/23 10:50:04;;;;;;;9.63;3.92;;;;;;;17.37;49.41;101858.53;7395720;19;20006;-89
2023/01/23 10:52:37;;;;;;;6.70;2.72;;;;;;;17.58;49.54;101863.22;7393939;19;20019;-88
2023/01/23 10:55:23;;;;;;;6.15;1.98;;;;;;;17.37;49.62;101852.91;7395762;19;20014;-88
2023/01/23 10:57:53;;;;;;;3.15;1.90;;;;;;;17.27;49.54;101871.09;7394527;19;20023;-88
2023/01/23 11:00:44;;;;;;;6.30;3.10;;;;;;;16.93;49.25;101869.44;7393361;19;20814;-87
2023/01/23 11:03:28;;;;;;;6.93;4.05;;;;;;;16.92;49.61;101878.34;7392709;19;20003;-88
2023/01/23 11:06:02;;;;;;;6.57;3.15;;;;;;;17.04;50.20;101878.19;7391605;19;20078;-87
2023/01/23 11:08:39;;;;;;;6.13;2.10;;;;;;;17.20;49.77;101877.03;7395493;19;20018;-88
2023/01/23 11:11:14;;;;;;;9.88;2.75;;;;;;;17.57;49.59;101869.28;7392724;19;20074;-88
2023/01/23 11:13:46;;;;;;;6.35;3.08;;;;;;;17.56;49.85;101854.44;7393380;19;20022;-86
2023/01/23 11:16:19;;;;;;;6.65;3.53;;;;;;;17.63;49.74;101847.69;7392421;19;20018;-88
2023/01/23 11:19:04;;;;;;;17.45;2.85;;;;;;;17.23;50.16;101843.09;7391630;19;20802;-88
2023/01/23 11:21:34;;;;;;;3.72;2.65;;;;;;;17.40;50.32;101841.47;7392709;19;20535;-88
2023/01/23 11:24:26;;;;;;;9.77;2.50;;;;;;;17.26;50.10;101830.13;7391515;19;20023;-88
2023/01/23 11:27:16;;;;;;;3.25;1.27;;;;;;;17.46;50.21;101827.53;7385709;19;20014;-88
2023/01/23 11:30:07;;;;;;;12.80;3.70;;;;;;;17.71;49.99;101827.13;7387180;19;20115;-88
2023/01/23 11:32:56;;;;;;;6.23;1.80;;;;;;;18.06;49.66;101835.88;7384776;19;20122;-88
2023/01/23 11:35:41;;;;;;;11.75;3.45;;;;;;;18.14;49.38;101829.38;7385841;19;20021;-86
2023/01/23 11:38:14;;;;;;;4.63;3.10;;;;;;;18.35;48.49;101829.53;7385180;19;20043;-87
2023/01/23 11:40:41;;;;;;;9.70;3.88;;;;;;;18.48;48.05;101830.09;7385974;19;20144;-88
2023/01/23 11:43:15;;;;;;;7.45;3.45;;;;;;;18.62;47.95;101826.53;7382310;19;20019;-88
2023/01/23 11:45:45;;;;;;;6.82;2.70;;;;;;;18.03;48.49;101829.16;7388010;19;20029;-87